sensor_id;sensor_type;location;lat;lon;timestamp;temperature;humidity
19680;DHT22;9989;48.962;9.182;2023-07-28T00:01:36;19.10;99.90
19680;DHT22;9989;48.962;9.182;2023-07-28T00:04:02;19.10;99.90
19680;DHT22;9989;48.962;9.182;2023-07-28T00:06:32;19.10;99.90
19680;DHT22;9989;48.962;9.182;2023-07-28T00:08:58;19.00;99.90
19680;DHT22;9989;48.962;9.182;2023-07-28T00:11:24;19.10;99.90
19680;DHT22;9989;48.962;9.182;2023-07-28T00:13:49;19.10;99.90
19680;DHT22;9989;48.962;9.182;2023-07-28T00:16:15;19.00;99.90
19680;DHT22;9989;48.962;9.182;2023-07-28T00:18:41;19.00;99.90
19680;DHT22;9989;48.962;9.182;2023-07-28T00:21:06;19.10;99.90
19680;DHT22;9989;48.962;9.182;2023-07-28T00:23:32;19.00;99.90
19680;DHT22;9989;48.962;9.182;2023-07-28T00:25:57;19.00;99.90
19680;DHT22;9989;48.962;9.182;2023-07-28T00:28:23;19.10;99.90
19680;DHT22;9989;48.962;9.182;2023-07-28T00:30:49;19.10;99.90
19680;DHT22;9989;48.962;9.182;2023-07-28T00:33:15;19.10;99.90
19680;DHT22;9989;48.962;9.182;2023-07-28T00:35:41;19.10;99.90
19680;DHT22;9989;48.962;9.182;2023-07-28T00:38:07;19.10;99.90
19680;DHT22;9989;48.962;9.182;2023-07-28T00:40:32;19.10;99.90
19680;DHT22;9989;48.962;9.182;2023-07-28T00:42:58;19.00;99.90
19680;DHT22;9989;48.962;9.182;2023-07-28T00:45:24;19.00;99.90
19680;DHT22;9989;48.962;9.182;2023-07-28T00:47:49;19.00;99.90
19680;DHT22;9989;48.962;9.182;2023-07-28T00:50:15;19.00;99.90
19680;DHT22;9989;48.962;9.182;2023-07-28T00:52:41;19.00;99.90
19680;DHT22;9989;48.962;9.182;2023-07-28T00:55:07;19.00;99.90
19680;DHT22;9989;48.962;9.182;2023-07-28T00:57:34;19.00;99.90
19680;DHT22;9989;48.962;9.182;2023-07-28T01:00:00;18.90;99.90
19680;DHT22;9989;48.962;9.182;2023-07-28T01:02:26;18.90;99.90
19680;DHT22;9989;48.962;9.182;2023-07-28T01:04:52;18.90;99.90
19680;DHT22;9989;48.962;9.182;2023-07-28T01:10:08;18.90;99.90
19680;DHT22;9989;48.962;9.182;2023-07-28T01:12:35;18.90;99.90
19680;DHT22;9989;48.962;9.182;2023-07-28T01:15:01;18.80;99.90
19680;DHT22;9989;48.962;9.182;2023-07-28T01:17:27;18.80;99.90
19680;DHT22;9989;48.962;9.182;2023-07-28T01:19:53;18.90;99.90
19680;DHT22;9989;48.962;9.182;2023-07-28T01:27:52;18.80;99.90
19680;DHT22;9989;48.962;9.182;2023-07-28T01:30:19;18.70;99.90
19680;DHT22;9989;48.962;9.182;2023-07-28T01:32:47;18.80;99.90
19680;DHT22;9989;48.962;9.182;2023-07-28T01:35:13;18.70;99.90
19680;DHT22;9989;48.962;9.182;2023-07-28T01:37:38;18.70;99.90
19680;DHT22;9989;48.962;9.182;2023-07-28T01:40:04;18.70;99.90
19680;DHT22;9989;48.962;9.182;2023-07-28T01:42:30;18.70;99.90
19680;DHT22;9989;48.962;9.182;2023-07-28T01:44:55;18.70;99.90
19680;DHT22;9989;48.962;9.182;2023-07-28T01:47:21;18.60;99.90
19680;DHT22;9989;48.962;9.182;2023-07-28T01:49:47;18.60;99.90
19680;DHT22;9989;48.962;9.182;2023-07-28T01:52:12;18.60;99.90
19680;DHT22;9989;48.962;9.182;2023-07-28T01:54:38;18.60;99.90
19680;DHT22;9989;48.962;9.182;2023-07-28T01:57:04;18.60;99.90
19680;DHT22;9989;48.962;9.182;2023-07-28T01:59:29;18.60;99.90
19680;DHT22;9989;48.962;9.182;2023-07-28T02:01:55;18.60;99.90
19680;DHT22;9989;48.962;9.182;2023-07-28T02:04:21;18.60;99.90
19680;DHT22;9989;48.962;9.182;2023-07-28T02:06:46;18.60;99.90
19680;DHT22;9989;48.962;9.182;2023-07-28T02:09:12;18.60;99.90
19680;DHT22;9989;48.962;9.182;2023-07-28T02:11:37;18.60;99.90
19680;DHT22;9989;48.962;9.182;2023-07-28T02:14:03;18.60;99.90
19680;DHT22;9989;48.962;9.182;2023-07-28T02:16:29;18.60;99.90
19680;DHT22;9989;48.962;9.182;2023-07-28T02:18:56;18.60;99.90
19680;DHT22;9989;48.962;9.182;2023-07-28T02:21:21;18.60;99.90
19680;DHT22;9989;48.962;9.182;2023-07-28T02:23:48;18.60;99.90
19680;DHT22;9989;48.962;9.182;2023-07-28T02:26:13;18.60;99.90
19680;DHT22;9989;48.962;9.182;2023-07-28T02:28:39;18.60;99.90
19680;DHT22;9989;48.962;9.182;2023-07-28T02:31:04;18.60;99.90
19680;DHT22;9989;48.962;9.182;2023-07-28T02:33:30;18.60;99.90
19680;DHT22;9989;48.962;9.182;2023-07-28T02:35:57;18.60;99.90
19680;DHT22;9989;48.962;9.182;2023-07-28T02:38:22;18.60;99.90
19680;DHT22;9989;48.962;9.182;2023-07-28T02:40:48;18.60;99.90
19680;DHT22;9989;48.962;9.182;2023-07-28T02:43:13;18.60;99.90
19680;DHT22;9989;48.962;9.182;2023-07-28T02:45:39;18.60;99.90
19680;DHT22;9989;48.962;9.182;2023-07-28T02:48:05;18.60;99.90
19680;DHT22;9989;48.962;9.182;2023-07-28T02:50:31;18.60;99.90
19680;DHT22;9989;48.962;9.182;2023-07-28T02:52:56;18.60;99.90
19680;DHT22;9989;48.962;9.182;2023-07-28T02:55:22;18.60;99.90
19680;DHT22;9989;48.962;9.182;2023-07-28T02:57:48;18.60;99.90
19680;DHT22;9989;48.962;9.182;2023-07-28T03:00:13;18.60;99.90
19680;DHT22;9989;48.962;9.182;2023-07-28T03:02:39;18.60;99.90
19680;DHT22;9989;48.962;9.182;2023-07-28T03:05:05;18.60;99.90
19680;DHT22;9989;48.962;9.182;2023-07-28T03:07:31;18.60;99.90
19680;DHT22;9989;48.962;9.182;2023-07-28T03:09:57;18.50;99.90
19680;DHT22;9989;48.962;9.182;2023-07-28T03:12:22;18.50;99.90
19680;DHT22;9989;48.962;9.182;2023-07-28T03:14:48;18.50;99.90
19680;DHT22;9989;48.962;9.182;2023-07-28T03:17:13;18.50;99.90
19680;DHT22;9989;48.962;9.182;2023-07-28T03:19:39;18.50;99.90
19680;DHT22;9989;48.962;9.182;2023-07-28T03:22:05;18.50;99.90
19680;DHT22;9989;48.962;9.182;2023-07-28T03:24:30;18.50;99.90
19680;DHT22;9989;48.962;9.182;2023-07-28T03:26:56;18.50;99.90
19680;DHT22;9989;48.962;9.182;2023-07-28T03:29:22;18.50;99.90
19680;DHT22;9989;48.962;9.182;2023-07-28T03:31:47;18.50;99.90
19680;DHT22;9989;48.962;9.182;2023-07-28T03:34:13;18.50;99.90
19680;DHT22;9989;48.962;9.182;2023-07-28T03:36:38;18.50;99.90
19680;DHT22;9989;48.962;9.182;2023-07-28T03:39:04;18.40;99.90
19680;DHT22;9989;48.962;9.182;2023-07-28T03:41:30;18.40;99.90
19680;DHT22;9989;48.962;9.182;2023-07-28T03:43:55;18.40;99.90
19680;DHT22;9989;48.962;9.182;2023-07-28T03:46:21;18.40;99.90
19680;DHT22;9989;48.962;9.182;2023-07-28T03:48:47;18.40;99.90
19680;DHT22;9989;48.962;9.182;2023-07-28T03:51:12;18.40;99.90
19680;DHT22;9989;48.962;9.182;2023-07-28T03:53:38;18.40;99.90
19680;DHT22;9989;48.962;9.182;2023-07-28T03:56:04;18.40;99.90
19680;DHT22;9989;48.962;9.182;2023-07-28T03:58:29;18.40;99.90
19680;DHT22;9989;48.962;9.182;2023-07-28T04:00:55;18.40;99.90
19680;DHT22;9989;48.962;9.182;2023-07-28T04:03:21;18.40;99.90
19680;DHT22;9989;48.962;9.182;2023-07-28T04:05:46;18.40;99.90
19680;DHT22;9989;48.962;9.182;2023-07-28T04:08:12;18.40;99.90
19680;DHT22;9989;48.962;9.182;2023-07-28T04:10:38;18.40;99.90
19680;DHT22;9989;48.962;9.182;2023-07-28T04:13:03;18.40;99.90
19680;DHT22;9989;48.962;9.182;2023-07-28T04:15:29;18.40;99.90
19680;DHT22;9989;48.962;9.182;2023-07-28T04:17:54;18.40;99.90
19680;DHT22;9989;48.962;9.182;2023-07-28T04:20:20;18.40;99.90
19680;DHT22;9989;48.962;9.182;2023-07-28T04:22:46;18.40;99.90
19680;DHT22;9989;48.962;9.182;2023-07-28T04:25:11;18.40;99.90
19680;DHT22;9989;48.962;9.182;2023-07-28T04:27:37;18.50;99.90
19680;DHT22;9989;48.962;9.182;2023-07-28T04:30:03;18.50;99.90
19680;DHT22;9989;48.962;9.182;2023-07-28T04:32:29;18.50;99.90
19680;DHT22;9989;48.962;9.182;2023-07-28T04:34:54;18.50;99.90
19680;DHT22;9989;48.962;9.182;2023-07-28T04:37:20;18.50;99.90
19680;DHT22;9989;48.962;9.182;2023-07-28T04:39:45;18.50;99.90
19680;DHT22;9989;48.962;9.182;2023-07-28T04:42:11;18.50;99.90
19680;DHT22;9989;48.962;9.182;2023-07-28T04:44:37;18.50;99.90
19680;DHT22;9989;48.962;9.182;2023-07-28T04:47:05;18.50;99.90
19680;DHT22;9989;48.962;9.182;2023-07-28T04:49:30;18.50;99.90
19680;DHT22;9989;48.962;9.182;2023-07-28T04:51:56;18.50;99.90
19680;DHT22;9989;48.962;9.182;2023-07-28T04:54:22;18.50;99.90
19680;DHT22;9989;48.962;9.182;2023-07-28T04:56:47;18.60;99.90
19680;DHT22;9989;48.962;9.182;2023-07-28T04:59:15;18.60;99.90
19680;DHT22;9989;48.962;9.182;2023-07-28T05:01:41;18.60;99.90
19680;DHT22;9989;48.962;9.182;2023-07-28T05:04:06;18.60;99.90
19680;DHT22;9989;48.962;9.182;2023-07-28T05:06:32;18.60;99.90
19680;DHT22;9989;48.962;9.182;2023-07-28T05:08:57;18.60;99.90
19680;DHT22;9989;48.962;9.182;2023-07-28T05:11:23;18.60;99.90
19680;DHT22;9989;48.962;9.182;2023-07-28T05:13:49;18.60;99.90
19680;DHT22;9989;48.962;9.182;2023-07-28T05:16:14;18.60;99.90
19680;DHT22;9989;48.962;9.182;2023-07-28T05:18:40;18.60;99.90
19680;DHT22;9989;48.962;9.182;2023-07-28T05:21:08;18.60;99.90
19680;DHT22;9989;48.962;9.182;2023-07-28T05:23:34;18.60;99.90
19680;DHT22;9989;48.962;9.182;2023-07-28T05:25:59;18.70;99.90
19680;DHT22;9989;48.962;9.182;2023-07-28T05:28:25;18.70;99.90
19680;DHT22;9989;48.962;9.182;2023-07-28T05:30:50;18.70;99.90
19680;DHT22;9989;48.962;9.182;2023-07-28T05:33:16;18.70;99.90
19680;DHT22;9989;48.962;9.182;2023-07-28T05:35:42;18.80;99.90
19680;DHT22;9989;48.962;9.182;2023-07-28T05:38:07;18.80;99.90
19680;DHT22;9989;48.962;9.182;2023-07-28T05:40:33;18.80;99.90
19680;DHT22;9989;48.962;9.182;2023-07-28T05:42:59;18.80;99.90
19680;DHT22;9989;48.962;9.182;2023-07-28T05:45:24;18.90;99.90
19680;DHT22;9989;48.962;9.182;2023-07-28T05:47:50;18.90;99.90
19680;DHT22;9989;48.962;9.182;2023-07-28T05:50:15;18.90;99.90
19680;DHT22;9989;48.962;9.182;2023-07-28T05:52:41;18.90;99.90
19680;DHT22;9989;48.962;9.182;2023-07-28T05:55:07;18.90;99.90
19680;DHT22;9989;48.962;9.182;2023-07-28T05:57:33;18.90;99.90
19680;DHT22;9989;48.962;9.182;2023-07-28T05:59:58;19.00;99.90
19680;DHT22;9989;48.962;9.182;2023-07-28T06:02:24;19.00;99.90
19680;DHT22;9989;48.962;9.182;2023-07-28T06:04:49;19.00;99.90
19680;DHT22;9989;48.962;9.182;2023-07-28T06:07:15;19.00;99.90
19680;DHT22;9989;48.962;9.182;2023-07-28T06:09:41;19.10;99.90
19680;DHT22;9989;48.962;9.182;2023-07-28T06:12:07;19.10;99.90
19680;DHT22;9989;48.962;9.182;2023-07-28T06:14:32;19.10;99.90
19680;DHT22;9989;48.962;9.182;2023-07-28T06:16:58;19.10;99.90
19680;DHT22;9989;48.962;9.182;2023-07-28T06:19:24;19.20;99.90
19680;DHT22;9989;48.962;9.182;2023-07-28T06:21:53;19.20;99.90
19680;DHT22;9989;48.962;9.182;2023-07-28T06:24:18;19.20;99.90
19680;DHT22;9989;48.962;9.182;2023-07-28T06:26:44;19.10;99.90
19680;DHT22;9989;48.962;9.182;2023-07-28T06:29:10;19.20;99.90
19680;DHT22;9989;48.962;9.182;2023-07-28T06:31:36;19.20;99.90
19680;DHT22;9989;48.962;9.182;2023-07-28T06:34:01;19.20;99.90
19680;DHT22;9989;48.962;9.182;2023-07-28T06:36:27;19.20;99.90
19680;DHT22;9989;48.962;9.182;2023-07-28T06:38:53;19.30;99.90
19680;DHT22;9989;48.962;9.182;2023-07-28T06:41:21;19.30;99.90
19680;DHT22;9989;48.962;9.182;2023-07-28T06:43:46;19.30;99.90
19680;DHT22;9989;48.962;9.182;2023-07-28T06:46:14;19.30;99.90
19680;DHT22;9989;48.962;9.182;2023-07-28T06:48:39;19.40;99.90
19680;DHT22;9989;48.962;9.182;2023-07-28T06:51:06;19.40;99.90
19680;DHT22;9989;48.962;9.182;2023-07-28T06:53:32;19.50;99.90
19680;DHT22;9989;48.962;9.182;2023-07-28T06:55:58;19.50;99.90
19680;DHT22;9989;48.962;9.182;2023-07-28T06:58:23;19.50;99.90
19680;DHT22;9989;48.962;9.182;2023-07-28T07:00:49;19.40;99.90
19680;DHT22;9989;48.962;9.182;2023-07-28T07:03:14;19.50;99.90
19680;DHT22;9989;48.962;9.182;2023-07-28T07:05:40;19.50;99.90
19680;DHT22;9989;48.962;9.182;2023-07-28T07:08:06;19.50;99.90
19680;DHT22;9989;48.962;9.182;2023-07-28T07:10:31;19.50;99.90
19680;DHT22;9989;48.962;9.182;2023-07-28T07:12:57;19.60;99.90
19680;DHT22;9989;48.962;9.182;2023-07-28T07:15:23;19.70;99.90
19680;DHT22;9989;48.962;9.182;2023-07-28T07:17:48;19.70;99.90
19680;DHT22;9989;48.962;9.182;2023-07-28T07:20:14;19.70;99.90
19680;DHT22;9989;48.962;9.182;2023-07-28T07:22:41;19.80;99.90
19680;DHT22;9989;48.962;9.182;2023-07-28T07:25:06;19.80;99.90
19680;DHT22;9989;48.962;9.182;2023-07-28T07:27:33;19.90;99.90
19680;DHT22;9989;48.962;9.182;2023-07-28T07:29:58;19.90;99.90
19680;DHT22;9989;48.962;9.182;2023-07-28T07:32:24;20.00;99.90
19680;DHT22;9989;48.962;9.182;2023-07-28T07:34:50;20.00;99.90
19680;DHT22;9989;48.962;9.182;2023-07-28T07:37:15;20.00;99.90
19680;DHT22;9989;48.962;9.182;2023-07-28T07:39:41;20.10;99.90
19680;DHT22;9989;48.962;9.182;2023-07-28T07:42:10;20.10;99.90
19680;DHT22;9989;48.962;9.182;2023-07-28T07:44:37;20.20;99.90
19680;DHT22;9989;48.962;9.182;2023-07-28T07:47:11;20.30;99.90
19680;DHT22;9989;48.962;9.182;2023-07-28T07:49:38;20.40;99.90
19680;DHT22;9989;48.962;9.182;2023-07-28T07:52:06;20.40;99.90
19680;DHT22;9989;48.962;9.182;2023-07-28T07:54:32;20.50;99.90
19680;DHT22;9989;48.962;9.182;2023-07-28T07:56:57;20.60;99.90
19680;DHT22;9989;48.962;9.182;2023-07-28T07:59:23;20.60;99.90
19680;DHT22;9989;48.962;9.182;2023-07-28T08:01:53;20.70;99.90
19680;DHT22;9989;48.962;9.182;2023-07-28T08:04:18;20.70;99.90
19680;DHT22;9989;48.962;9.182;2023-07-28T08:06:44;20.70;99.90
19680;DHT22;9989;48.962;9.182;2023-07-28T08:09:09;20.70;99.90
19680;DHT22;9989;48.962;9.182;2023-07-28T08:11:35;20.80;99.90
19680;DHT22;9989;48.962;9.182;2023-07-28T08:14:01;20.80;99.90
19680;DHT22;9989;48.962;9.182;2023-07-28T08:16:26;20.80;99.90
19680;DHT22;9989;48.962;9.182;2023-07-28T08:18:52;20.80;99.90
19680;DHT22;9989;48.962;9.182;2023-07-28T08:21:18;20.80;99.90
19680;DHT22;9989;48.962;9.182;2023-07-28T08:23:44;20.80;99.90
19680;DHT22;9989;48.962;9.182;2023-07-28T08:26:10;20.80;99.90
19680;DHT22;9989;48.962;9.182;2023-07-28T08:28:36;20.80;99.90
19680;DHT22;9989;48.962;9.182;2023-07-28T08:31:02;20.80;99.90
19680;DHT22;9989;48.962;9.182;2023-07-28T08:33:29;20.80;99.90
19680;DHT22;9989;48.962;9.182;2023-07-28T08:35:54;20.70;99.90
19680;DHT22;9989;48.962;9.182;2023-07-28T08:38:20;20.70;99.90
19680;DHT22;9989;48.962;9.182;2023-07-28T08:40:46;20.70;99.90
19680;DHT22;9989;48.962;9.182;2023-07-28T08:43:11;20.80;99.90
19680;DHT22;9989;48.962;9.182;2023-07-28T08:45:37;20.90;99.90
19680;DHT22;9989;48.962;9.182;2023-07-28T08:48:04;21.00;99.90
19680;DHT22;9989;48.962;9.182;2023-07-28T08:50:29;21.00;99.90
19680;DHT22;9989;48.962;9.182;2023-07-28T08:52:56;21.10;99.90
19680;DHT22;9989;48.962;9.182;2023-07-28T08:55:22;21.20;99.90
19680;DHT22;9989;48.962;9.182;2023-07-28T08:57:48;21.30;99.90
19680;DHT22;9989;48.962;9.182;2023-07-28T09:00:14;21.40;99.90
19680;DHT22;9989;48.962;9.182;2023-07-28T09:02:41;21.40;99.90
19680;DHT22;9989;48.962;9.182;2023-07-28T09:05:17;21.50;99.90
19680;DHT22;9989;48.962;9.182;2023-07-28T09:07:43;21.60;99.90
19680;DHT22;9989;48.962;9.182;2023-07-28T09:10:09;21.70;99.90
19680;DHT22;9989;48.962;9.182;2023-07-28T09:12:34;21.80;99.90
19680;DHT22;9989;48.962;9.182;2023-07-28T09:15:05;21.90;99.90
19680;DHT22;9989;48.962;9.182;2023-07-28T09:17:32;22.20;99.90
19680;DHT22;9989;48.962;9.182;2023-07-28T09:20:06;22.50;99.90
19680;DHT22;9989;48.962;9.182;2023-07-28T09:22:33;22.70;99.90
19680;DHT22;9989;48.962;9.182;2023-07-28T09:25:14;22.80;99.90
19680;DHT22;9989;48.962;9.182;2023-07-28T09:27:40;22.90;99.90
19680;DHT22;9989;48.962;9.182;2023-07-28T09:30:06;23.00;99.90
19680;DHT22;9989;48.962;9.182;2023-07-28T09:32:33;22.90;99.90
19680;DHT22;9989;48.962;9.182;2023-07-28T09:35:09;23.00;99.90
19680;DHT22;9989;48.962;9.182;2023-07-28T09:37:49;23.20;99.90
19680;DHT22;9989;48.962;9.182;2023-07-28T09:40:18;23.50;99.90
19680;DHT22;9989;48.962;9.182;2023-07-28T09:42:45;23.60;99.90
19680;DHT22;9989;48.962;9.182;2023-07-28T09:45:16;23.70;99.90
19680;DHT22;9989;48.962;9.182;2023-07-28T09:47:47;23.80;99.90
19680;DHT22;9989;48.962;9.182;2023-07-28T09:50:17;23.90;99.90
19680;DHT22;9989;48.962;9.182;2023-07-28T09:52:46;24.00;99.90
19680;DHT22;9989;48.962;9.182;2023-07-28T09:55:12;24.00;99.90
19680;DHT22;9989;48.962;9.182;2023-07-28T09:57:51;24.20;99.90
19680;DHT22;9989;48.962;9.182;2023-07-28T10:00:19;24.40;99.90
19680;DHT22;9989;48.962;9.182;2023-07-28T10:02:46;24.50;99.90
19680;DHT22;9989;48.962;9.182;2023-07-28T10:05:12;24.60;99.90
19680;DHT22;9989;48.962;9.182;2023-07-28T10:07:42;24.80;99.90
19680;DHT22;9989;48.962;9.182;2023-07-28T10:10:10;24.90;99.90
19680;DHT22;9989;48.962;9.182;2023-07-28T10:12:50;25.00;99.90
19680;DHT22;9989;48.962;9.182;2023-07-28T10:15:17;25.20;99.90
19680;DHT22;9989;48.962;9.182;2023-07-28T10:17:51;25.40;99.90
19680;DHT22;9989;48.962;9.182;2023-07-28T10:23:17;25.60;99.90
19680;DHT22;9989;48.962;9.182;2023-07-28T10:25:45;25.60;99.90
19680;DHT22;9989;48.962;9.182;2023-07-28T10:28:32;25.80;99.90
19680;DHT22;9989;48.962;9.182;2023-07-28T10:31:01;25.80;99.90
19680;DHT22;9989;48.962;9.182;2023-07-28T10:33:32;25.80;99.90
19680;DHT22;9989;48.962;9.182;2023-07-28T10:36:00;25.70;99.90
19680;DHT22;9989;48.962;9.182;2023-07-28T10:38:35;25.70;99.90
19680;DHT22;9989;48.962;9.182;2023-07-28T10:41:16;25.70;99.90
19680;DHT22;9989;48.962;9.182;2023-07-28T10:43:43;25.70;99.90
19680;DHT22;9989;48.962;9.182;2023-07-28T10:46:10;25.70;99.90
19680;DHT22;9989;48.962;9.182;2023-07-28T10:48:46;25.60;99.90
19680;DHT22;9989;48.962;9.182;2023-07-28T10:51:26;25.50;99.90
19680;DHT22;9989;48.962;9.182;2023-07-28T10:53:57;25.30;99.90
19680;DHT22;9989;48.962;9.182;2023-07-28T10:56:23;25.10;99.90
19680;DHT22;9989;48.962;9.182;2023-07-28T10:58:59;24.90;99.90
19680;DHT22;9989;48.962;9.182;2023-07-28T11:01:39;24.60;99.90
19680;DHT22;9989;48.962;9.182;2023-07-28T11:06:45;24.30;99.90
19680;DHT22;9989;48.962;9.182;2023-07-28T11:09:12;24.20;99.90
19680;DHT22;9989;48.962;9.182;2023-07-28T11:11:38;24.10;99.90
19680;DHT22;9989;48.962;9.182;2023-07-28T11:14:05;24.00;99.90
19680;DHT22;9989;48.962;9.182;2023-07-28T11:16:34;24.00;99.90
19680;DHT22;9989;48.962;9.182;2023-07-28T11:19:07;24.00;99.90
19680;DHT22;9989;48.962;9.182;2023-07-28T11:21:38;23.90;99.90
19680;DHT22;9989;48.962;9.182;2023-07-28T11:24:05;23.90;99.90
19680;DHT22;9989;48.962;9.182;2023-07-28T11:26:31;23.90;99.90
19680;DHT22;9989;48.962;9.182;2023-07-28T11:28:59;23.90;99.90
19680;DHT22;9989;48.962;9.182;2023-07-28T11:31:25;23.90;99.90
19680;DHT22;9989;48.962;9.182;2023-07-28T11:33:51;23.90;99.90
19680;DHT22;9989;48.962;9.182;2023-07-28T11:36:25;23.90;99.90
19680;DHT22;9989;48.962;9.182;2023-07-28T11:38:52;24.00;99.90
19680;DHT22;9989;48.962;9.182;2023-07-28T11:41:20;24.10;99.90
19680;DHT22;9989;48.962;9.182;2023-07-28T11:43:47;24.20;99.90
19680;DHT22;9989;48.962;9.182;2023-07-28T11:46:35;24.20;99.90
19680;DHT22;9989;48.962;9.182;2023-07-28T11:49:18;24.20;99.90
19680;DHT22;9989;48.962;9.182;2023-07-28T11:51:48;24.20;99.90
19680;DHT22;9989;48.962;9.182;2023-07-28T11:54:17;24.30;99.90
19680;DHT22;9989;48.962;9.182;2023-07-28T11:56:43;24.30;99.90
19680;DHT22;9989;48.962;9.182;2023-07-28T11:59:10;24.30;99.90
19680;DHT22;9989;48.962;9.182;2023-07-28T12:01:54;24.30;99.90
19680;DHT22;9989;48.962;9.182;2023-07-28T12:04:25;24.30;99.90
19680;DHT22;9989;48.962;9.182;2023-07-28T12:07:13;24.30;99.90
19680;DHT22;9989;48.962;9.182;2023-07-28T12:12:11;24.60;99.90
19680;DHT22;9989;48.962;9.182;2023-07-28T12:14:37;24.60;99.90
19680;DHT22;9989;48.962;9.182;2023-07-28T12:17:06;24.70;99.90
19680;DHT22;9989;48.962;9.182;2023-07-28T12:20:00;24.70;99.90
19680;DHT22;9989;48.962;9.182;2023-07-28T12:22:27;24.70;99.90
19680;DHT22;9989;48.962;9.182;2023-07-28T12:24:53;24.60;99.90
19680;DHT22;9989;48.962;9.182;2023-07-28T12:27:19;24.60;99.90
19680;DHT22;9989;48.962;9.182;2023-07-28T12:29:49;24.50;99.90
19680;DHT22;9989;48.962;9.182;2023-07-28T12:32:14;24.40;99.90
19680;DHT22;9989;48.962;9.182;2023-07-28T12:34:40;24.30;99.90
19680;DHT22;9989;48.962;9.182;2023-07-28T12:37:06;24.30;99.90
19680;DHT22;9989;48.962;9.182;2023-07-28T12:39:32;24.10;99.90
19680;DHT22;9989;48.962;9.182;2023-07-28T12:41:58;24.00;99.90
19680;DHT22;9989;48.962;9.182;2023-07-28T12:44:24;24.00;99.90
19680;DHT22;9989;48.962;9.182;2023-07-28T12:46:49;23.80;99.90
19680;DHT22;9989;48.962;9.182;2023-07-28T12:49:15;23.70;99.90
19680;DHT22;9989;48.962;9.182;2023-07-28T12:51:41;23.50;99.90
19680;DHT22;9989;48.962;9.182;2023-07-28T12:54:07;23.50;99.90
19680;DHT22;9989;48.962;9.182;2023-07-28T12:56:33;23.50;99.90
19680;DHT22;9989;48.962;9.182;2023-07-28T12:58:58;23.50;99.90
19680;DHT22;9989;48.962;9.182;2023-07-28T13:01:24;23.40;99.90
19680;DHT22;9989;48.962;9.182;2023-07-28T13:03:49;23.40;99.90
19680;DHT22;9989;48.962;9.182;2023-07-28T13:06:15;23.30;99.90
19680;DHT22;9989;48.962;9.182;2023-07-28T13:08:41;23.30;99.90
19680;DHT22;9989;48.962;9.182;2023-07-28T13:11:06;23.20;99.90
19680;DHT22;9989;48.962;9.182;2023-07-28T13:13:32;23.20;99.90
19680;DHT22;9989;48.962;9.182;2023-07-28T13:15:58;23.10;99.90
19680;DHT22;9989;48.962;9.182;2023-07-28T13:18:24;23.00;99.90
19680;DHT22;9989;48.962;9.182;2023-07-28T13:20:51;23.00;99.90
19680;DHT22;9989;48.962;9.182;2023-07-28T13:23:16;22.90;99.90
19680;DHT22;9989;48.962;9.182;2023-07-28T13:25:42;22.90;99.90
19680;DHT22;9989;48.962;9.182;2023-07-28T13:28:08;22.80;99.90
19680;DHT22;9989;48.962;9.182;2023-07-28T13:30:33;22.80;99.90
19680;DHT22;9989;48.962;9.182;2023-07-28T13:32:59;22.70;99.90
19680;DHT22;9989;48.962;9.182;2023-07-28T13:35:25;22.60;99.90
19680;DHT22;9989;48.962;9.182;2023-07-28T13:37:50;22.60;99.90
19680;DHT22;9989;48.962;9.182;2023-07-28T13:40:16;22.60;99.90
19680;DHT22;9989;48.962;9.182;2023-07-28T13:42:42;22.50;99.90
19680;DHT22;9989;48.962;9.182;2023-07-28T13:45:09;22.50;99.90
19680;DHT22;9989;48.962;9.182;2023-07-28T13:47:34;22.50;99.90
19680;DHT22;9989;48.962;9.182;2023-07-28T13:50:00;22.50;99.90
19680;DHT22;9989;48.962;9.182;2023-07-28T13:52:26;22.50;99.90
19680;DHT22;9989;48.962;9.182;2023-07-28T13:54:52;22.40;99.90
19680;DHT22;9989;48.962;9.182;2023-07-28T13:57:18;22.40;99.90
19680;DHT22;9989;48.962;9.182;2023-07-28T13:59:43;22.30;99.90
19680;DHT22;9989;48.962;9.182;2023-07-28T14:02:09;22.30;99.90
19680;DHT22;9989;48.962;9.182;2023-07-28T14:04:35;22.20;99.90
19680;DHT22;9989;48.962;9.182;2023-07-28T14:07:00;22.10;99.90
19680;DHT22;9989;48.962;9.182;2023-07-28T14:09:26;22.00;99.90
19680;DHT22;9989;48.962;9.182;2023-07-28T14:11:52;22.00;99.90
19680;DHT22;9989;48.962;9.182;2023-07-28T14:14:17;21.90;99.90
19680;DHT22;9989;48.962;9.182;2023-07-28T14:16:43;21.80;99.90
19680;DHT22;9989;48.962;9.182;2023-07-28T14:19:09;21.70;99.90
19680;DHT22;9989;48.962;9.182;2023-07-28T14:21:34;21.60;99.90
19680;DHT22;9989;48.962;9.182;2023-07-28T14:24:00;21.60;99.90
19680;DHT22;9989;48.962;9.182;2023-07-28T14:26:25;21.60;99.90
19680;DHT22;9989;48.962;9.182;2023-07-28T14:28:51;21.60;99.90
19680;DHT22;9989;48.962;9.182;2023-07-28T14:31:17;21.60;99.90
19680;DHT22;9989;48.962;9.182;2023-07-28T14:33:43;21.60;99.90
19680;DHT22;9989;48.962;9.182;2023-07-28T14:36:08;21.70;99.90
19680;DHT22;9989;48.962;9.182;2023-07-28T14:38:34;21.70;99.90
19680;DHT22;9989;48.962;9.182;2023-07-28T14:41:00;21.80;99.90
19680;DHT22;9989;48.962;9.182;2023-07-28T14:43:26;21.80;99.90
19680;DHT22;9989;48.962;9.182;2023-07-28T14:45:51;21.80;99.90
19680;DHT22;9989;48.962;9.182;2023-07-28T14:48:17;21.80;99.90
19680;DHT22;9989;48.962;9.182;2023-07-28T14:50:43;21.80;99.90
19680;DHT22;9989;48.962;9.182;2023-07-28T14:53:31;21.80;99.90
19680;DHT22;9989;48.962;9.182;2023-07-28T14:55:57;21.80;99.90
19680;DHT22;9989;48.962;9.182;2023-07-28T14:58:23;21.80;99.90
19680;DHT22;9989;48.962;9.182;2023-07-28T15:00:48;21.70;99.90
19680;DHT22;9989;48.962;9.182;2023-07-28T15:03:14;21.70;99.90
19680;DHT22;9989;48.962;9.182;2023-07-28T15:05:40;21.60;99.90
19680;DHT22;9989;48.962;9.182;2023-07-28T15:08:06;21.60;99.90
19680;DHT22;9989;48.962;9.182;2023-07-28T15:10:32;21.60;99.90
19680;DHT22;9989;48.962;9.182;2023-07-28T15:12:58;21.50;99.90
19680;DHT22;9989;48.962;9.182;2023-07-28T15:15:24;21.50;99.90
19680;DHT22;9989;48.962;9.182;2023-07-28T15:17:49;21.50;99.90
19680;DHT22;9989;48.962;9.182;2023-07-28T15:20:15;21.60;99.90
19680;DHT22;9989;48.962;9.182;2023-07-28T15:22:45;21.70;99.90
19680;DHT22;9989;48.962;9.182;2023-07-28T15:25:12;21.70;99.90
19680;DHT22;9989;48.962;9.182;2023-07-28T15:27:38;21.70;99.90
19680;DHT22;9989;48.962;9.182;2023-07-28T15:30:06;21.70;99.90
19680;DHT22;9989;48.962;9.182;2023-07-28T15:32:32;21.70;99.90
19680;DHT22;9989;48.962;9.182;2023-07-28T15:34:57;21.70;99.90
19680;DHT22;9989;48.962;9.182;2023-07-28T15:37:23;21.70;99.90
19680;DHT22;9989;48.962;9.182;2023-07-28T15:39:49;21.60;99.90
19680;DHT22;9989;48.962;9.182;2023-07-28T15:42:14;21.60;99.90
19680;DHT22;9989;48.962;9.182;2023-07-28T15:44:40;21.60;99.90
19680;DHT22;9989;48.962;9.182;2023-07-28T15:47:06;21.60;99.90
19680;DHT22;9989;48.962;9.182;2023-07-28T15:49:31;21.60;99.90
19680;DHT22;9989;48.962;9.182;2023-07-28T15:51:58;21.60;99.90
19680;DHT22;9989;48.962;9.182;2023-07-28T15:54:24;21.50;99.90
19680;DHT22;9989;48.962;9.182;2023-07-28T15:56:49;21.50;99.90
19680;DHT22;9989;48.962;9.182;2023-07-28T15:59:15;21.50;99.90